sensor_id;sensor_type;location;lat;lon;timestamp;temperature;humidity
19180;DHT22;9722;48.754;8.868;2023-06-10T00:03:20;15.00;86.30
19180;DHT22;9722;48.754;8.868;2023-06-10T00:06:40;15.00;86.30
19180;DHT22;9722;48.754;8.868;2023-06-10T00:10:01;14.90;86.20
19180;DHT22;9722;48.754;8.868;2023-06-10T00:13:25;14.90;86.30
19180;DHT22;9722;48.754;8.868;2023-06-10T00:16:46;14.80;86.50
19180;DHT22;9722;48.754;8.868;2023-06-10T00:20:10;14.70;86.70
19180;DHT22;9722;48.754;8.868;2023-06-10T00:23:33;14.60;86.80
19180;DHT22;9722;48.754;8.868;2023-06-10T00:26:58;14.60;87.50
19180;DHT22;9722;48.754;8.868;2023-06-10T00:30:18;14.50;87.90
19180;DHT22;9722;48.754;8.868;2023-06-10T00:33:39;14.50;88.10
19180;DHT22;9722;48.754;8.868;2023-06-10T00:36:59;14.40;89.00
19180;DHT22;9722;48.754;8.868;2023-06-10T00:40:20;14.40;88.70
19180;DHT22;9722;48.754;8.868;2023-06-10T00:43:40;14.40;89.30
19180;DHT22;9722;48.754;8.868;2023-06-10T00:47:02;14.40;90.00
19180;DHT22;9722;48.754;8.868;2023-06-10T00:50:23;14.30;89.50
19180;DHT22;9722;48.754;8.868;2023-06-10T00:53:44;14.30;89.60
19180;DHT22;9722;48.754;8.868;2023-06-10T00:57:05;14.30;89.80
19180;DHT22;9722;48.754;8.868;2023-06-10T01:00:26;14.30;90.10
19180;DHT22;9722;48.754;8.868;2023-06-10T01:03:46;14.30;90.20
19180;DHT22;9722;48.754;8.868;2023-06-10T01:11:01;14.30;90.70
19180;DHT22;9722;48.754;8.868;2023-06-10T01:14:24;14.20;90.70
19180;DHT22;9722;48.754;8.868;2023-06-10T01:17:59;14.20;90.80
19180;DHT22;9722;48.754;8.868;2023-06-10T01:21:23;14.20;91.00
19180;DHT22;9722;48.754;8.868;2023-06-10T01:24:44;14.10;90.90
19180;DHT22;9722;48.754;8.868;2023-06-10T01:31:42;14.00;91.10
19180;DHT22;9722;48.754;8.868;2023-06-10T01:35:05;13.90;91.20
19180;DHT22;9722;48.754;8.868;2023-06-10T01:38:27;13.90;91.40
19180;DHT22;9722;48.754;8.868;2023-06-10T01:41:50;13.90;91.70
19180;DHT22;9722;48.754;8.868;2023-06-10T01:45:11;13.80;91.90
19180;DHT22;9722;48.754;8.868;2023-06-10T01:48:32;13.80;92.20
19180;DHT22;9722;48.754;8.868;2023-06-10T01:51:53;13.80;92.30
19180;DHT22;9722;48.754;8.868;2023-06-10T01:55:13;13.80;92.40
19180;DHT22;9722;48.754;8.868;2023-06-10T01:58:34;13.70;92.40
19180;DHT22;9722;48.754;8.868;2023-06-10T02:01:54;13.70;92.50
19180;DHT22;9722;48.754;8.868;2023-06-10T02:05:15;13.70;92.60
19180;DHT22;9722;48.754;8.868;2023-06-10T02:08:35;13.70;92.80
19180;DHT22;9722;48.754;8.868;2023-06-10T02:11:56;13.70;93.10
19180;DHT22;9722;48.754;8.868;2023-06-10T02:15:16;13.70;93.30
19180;DHT22;9722;48.754;8.868;2023-06-10T02:18:37;13.70;93.50
19180;DHT22;9722;48.754;8.868;2023-06-10T02:21:58;13.60;93.60
19180;DHT22;9722;48.754;8.868;2023-06-10T02:25:19;13.60;93.50
19180;DHT22;9722;48.754;8.868;2023-06-10T02:28:42;13.60;93.50
19180;DHT22;9722;48.754;8.868;2023-06-10T02:32:03;13.50;93.50
19180;DHT22;9722;48.754;8.868;2023-06-10T02:35:24;13.40;93.50
19180;DHT22;9722;48.754;8.868;2023-06-10T02:38:45;13.40;93.60
19180;DHT22;9722;48.754;8.868;2023-06-10T02:42:06;13.30;93.90
19180;DHT22;9722;48.754;8.868;2023-06-10T02:45:26;13.20;94.00
19180;DHT22;9722;48.754;8.868;2023-06-10T02:48:47;13.10;94.30
19180;DHT22;9722;48.754;8.868;2023-06-10T02:52:09;13.00;94.40
19180;DHT22;9722;48.754;8.868;2023-06-10T02:55:31;13.00;94.70
19180;DHT22;9722;48.754;8.868;2023-06-10T02:58:52;12.90;94.90
19180;DHT22;9722;48.754;8.868;2023-06-10T03:02:13;12.90;95.10
19180;DHT22;9722;48.754;8.868;2023-06-10T03:05:33;12.90;95.30
19180;DHT22;9722;48.754;8.868;2023-06-10T03:08:54;12.80;95.30
19180;DHT22;9722;48.754;8.868;2023-06-10T03:12:15;12.80;95.50
19180;DHT22;9722;48.754;8.868;2023-06-10T03:15:35;12.80;95.80
19180;DHT22;9722;48.754;8.868;2023-06-10T03:18:56;12.70;95.90
19180;DHT22;9722;48.754;8.868;2023-06-10T03:22:17;12.60;96.10
19180;DHT22;9722;48.754;8.868;2023-06-10T03:25:38;12.60;96.30
19180;DHT22;9722;48.754;8.868;2023-06-10T03:28:58;12.50;96.50
19180;DHT22;9722;48.754;8.868;2023-06-10T03:32:19;12.50;96.70
19180;DHT22;9722;48.754;8.868;2023-06-10T03:35:39;12.50;96.90
19180;DHT22;9722;48.754;8.868;2023-06-10T03:39:00;12.50;97.00
19180;DHT22;9722;48.754;8.868;2023-06-10T03:42:20;12.50;97.00
19180;DHT22;9722;48.754;8.868;2023-06-10T03:45:41;12.60;97.20
19180;DHT22;9722;48.754;8.868;2023-06-10T03:49:01;12.70;97.40
19180;DHT22;9722;48.754;8.868;2023-06-10T03:52:23;12.70;97.40
19180;DHT22;9722;48.754;8.868;2023-06-10T03:55:43;12.70;97.50
19180;DHT22;9722;48.754;8.868;2023-06-10T03:59:05;12.70;97.40
19180;DHT22;9722;48.754;8.868;2023-06-10T04:02:25;12.80;97.50
19180;DHT22;9722;48.754;8.868;2023-06-10T04:05:46;12.80;97.50
19180;DHT22;9722;48.754;8.868;2023-06-10T04:09:07;12.90;97.60
19180;DHT22;9722;48.754;8.868;2023-06-10T04:12:28;12.90;97.40
19180;DHT22;9722;48.754;8.868;2023-06-10T04:15:48;12.90;97.30
19180;DHT22;9722;48.754;8.868;2023-06-10T04:19:09;12.90;97.30
19180;DHT22;9722;48.754;8.868;2023-06-10T04:22:29;13.10;97.30
19180;DHT22;9722;48.754;8.868;2023-06-10T04:25:50;13.20;97.30
19180;DHT22;9722;48.754;8.868;2023-06-10T04:29:10;13.30;97.30
19180;DHT22;9722;48.754;8.868;2023-06-10T04:32:31;13.40;97.10
19180;DHT22;9722;48.754;8.868;2023-06-10T04:35:51;13.50;96.90
19180;DHT22;9722;48.754;8.868;2023-06-10T04:39:12;13.60;96.70
19180;DHT22;9722;48.754;8.868;2023-06-10T04:42:33;13.70;96.50
19180;DHT22;9722;48.754;8.868;2023-06-10T04:45:54;13.90;96.30
19180;DHT22;9722;48.754;8.868;2023-06-10T04:49:14;14.00;96.10
19180;DHT22;9722;48.754;8.868;2023-06-10T04:52:35;14.10;95.80
19180;DHT22;9722;48.754;8.868;2023-06-10T04:55:56;14.40;95.60
19180;DHT22;9722;48.754;8.868;2023-06-10T04:59:17;14.50;95.30
19180;DHT22;9722;48.754;8.868;2023-06-10T05:02:38;14.70;94.90
19180;DHT22;9722;48.754;8.868;2023-06-10T05:05:58;14.90;94.40
19180;DHT22;9722;48.754;8.868;2023-06-10T05:09:19;15.10;94.00
19180;DHT22;9722;48.754;8.868;2023-06-10T05:12:40;15.20;93.60
19180;DHT22;9722;48.754;8.868;2023-06-10T05:16:01;15.40;93.20
19180;DHT22;9722;48.754;8.868;2023-06-10T05:19:21;15.60;92.80
19180;DHT22;9722;48.754;8.868;2023-06-10T05:22:42;15.90;92.50
19180;DHT22;9722;48.754;8.868;2023-06-10T05:26:02;16.10;92.00
19180;DHT22;9722;48.754;8.868;2023-06-10T05:29:23;16.30;91.60
19180;DHT22;9722;48.754;8.868;2023-06-10T05:32:43;16.50;91.10
19180;DHT22;9722;48.754;8.868;2023-06-10T05:36:04;16.70;90.80
19180;DHT22;9722;48.754;8.868;2023-06-10T05:39:25;16.90;90.40
19180;DHT22;9722;48.754;8.868;2023-06-10T05:42:45;17.10;90.10
19180;DHT22;9722;48.754;8.868;2023-06-10T05:46:06;17.40;89.20
19180;DHT22;9722;48.754;8.868;2023-06-10T05:49:27;17.70;87.90
19180;DHT22;9722;48.754;8.868;2023-06-10T05:52:47;18.20;85.50
19180;DHT22;9722;48.754;8.868;2023-06-10T05:56:08;18.60;83.30
19180;DHT22;9722;48.754;8.868;2023-06-10T05:59:28;19.20;80.60
19180;DHT22;9722;48.754;8.868;2023-06-10T06:02:49;19.70;78.30
19180;DHT22;9722;48.754;8.868;2023-06-10T06:06:11;20.10;76.60
19180;DHT22;9722;48.754;8.868;2023-06-10T06:09:31;20.70;75.50
19180;DHT22;9722;48.754;8.868;2023-06-10T06:12:52;21.30;73.60
19180;DHT22;9722;48.754;8.868;2023-06-10T06:16:12;21.80;71.70
19180;DHT22;9722;48.754;8.868;2023-06-10T06:19:34;22.30;69.90
19180;DHT22;9722;48.754;8.868;2023-06-10T06:22:54;22.90;68.20
19180;DHT22;9722;48.754;8.868;2023-06-10T06:26:15;23.40;66.60
19180;DHT22;9722;48.754;8.868;2023-06-10T06:29:35;23.90;64.60
19180;DHT22;9722;48.754;8.868;2023-06-10T06:32:56;24.30;62.80
19180;DHT22;9722;48.754;8.868;2023-06-10T06:36:16;24.70;61.20
19180;DHT22;9722;48.754;8.868;2023-06-10T06:39:37;25.20;59.90
19180;DHT22;9722;48.754;8.868;2023-06-10T06:42:57;25.60;58.80
19180;DHT22;9722;48.754;8.868;2023-06-10T06:46:18;26.00;58.00
19180;DHT22;9722;48.754;8.868;2023-06-10T06:49:38;26.40;56.80
19180;DHT22;9722;48.754;8.868;2023-06-10T06:52:59;26.80;56.10
19180;DHT22;9722;48.754;8.868;2023-06-10T06:56:19;27.30;55.30
19180;DHT22;9722;48.754;8.868;2023-06-10T06:59:41;27.60;54.40
19180;DHT22;9722;48.754;8.868;2023-06-10T07:03:02;28.00;53.40
19180;DHT22;9722;48.754;8.868;2023-06-10T07:06:22;28.30;52.90
19180;DHT22;9722;48.754;8.868;2023-06-10T07:09:43;28.70;52.40
19180;DHT22;9722;48.754;8.868;2023-06-10T07:13:03;29.00;51.70
19180;DHT22;9722;48.754;8.868;2023-06-10T07:16:24;29.30;50.90
19180;DHT22;9722;48.754;8.868;2023-06-10T07:19:45;29.60;50.20
19180;DHT22;9722;48.754;8.868;2023-06-10T07:23:05;29.90;49.40
19180;DHT22;9722;48.754;8.868;2023-06-10T07:26:26;30.20;48.30
19180;DHT22;9722;48.754;8.868;2023-06-10T07:29:47;30.30;47.50
19180;DHT22;9722;48.754;8.868;2023-06-10T07:33:07;30.40;46.30
19180;DHT22;9722;48.754;8.868;2023-06-10T07:36:28;30.40;45.60
19180;DHT22;9722;48.754;8.868;2023-06-10T07:39:49;30.50;45.40
19180;DHT22;9722;48.754;8.868;2023-06-10T07:43:10;30.50;44.30
19180;DHT22;9722;48.754;8.868;2023-06-10T07:46:30;30.30;43.50
19180;DHT22;9722;48.754;8.868;2023-06-10T07:49:51;30.20;43.90
19180;DHT22;9722;48.754;8.868;2023-06-10T07:53:11;30.10;44.40
19180;DHT22;9722;48.754;8.868;2023-06-10T07:56:32;30.30;43.80
19180;DHT22;9722;48.754;8.868;2023-06-10T07:59:52;30.30;43.40
19180;DHT22;9722;48.754;8.868;2023-06-10T08:03:15;30.30;43.90
19180;DHT22;9722;48.754;8.868;2023-06-10T08:06:35;30.60;44.60
19180;DHT22;9722;48.754;8.868;2023-06-10T08:09:57;31.20;43.50
19180;DHT22;9722;48.754;8.868;2023-06-10T08:13:17;31.50;43.00
19180;DHT22;9722;48.754;8.868;2023-06-10T08:16:38;32.00;42.80
19180;DHT22;9722;48.754;8.868;2023-06-10T08:19:58;32.50;41.90
19180;DHT22;9722;48.754;8.868;2023-06-10T08:23:19;32.80;41.30
19180;DHT22;9722;48.754;8.868;2023-06-10T08:26:40;33.10;40.90
19180;DHT22;9722;48.754;8.868;2023-06-10T08:30:00;33.50;40.30
19180;DHT22;9722;48.754;8.868;2023-06-10T08:33:21;33.70;39.70
19180;DHT22;9722;48.754;8.868;2023-06-10T08:36:42;34.00;39.30
19180;DHT22;9722;48.754;8.868;2023-06-10T08:40:03;34.30;39.10
19180;DHT22;9722;48.754;8.868;2023-06-10T08:43:35;34.60;38.70
19180;DHT22;9722;48.754;8.868;2023-06-10T08:46:59;34.90;38.00
19180;DHT22;9722;48.754;8.868;2023-06-10T08:50:21;35.20;37.80
19180;DHT22;9722;48.754;8.868;2023-06-10T08:53:50;35.50;37.20
19180;DHT22;9722;48.754;8.868;2023-06-10T08:57:13;35.60;36.80
19180;DHT22;9722;48.754;8.868;2023-06-10T09:00:34;35.70;37.00
19180;DHT22;9722;48.754;8.868;2023-06-10T09:03:54;35.80;36.00
19180;DHT22;9722;48.754;8.868;2023-06-10T09:07:16;35.80;36.10
19180;DHT22;9722;48.754;8.868;2023-06-10T09:10:37;35.90;36.50
19180;DHT22;9722;48.754;8.868;2023-06-10T09:13:58;36.20;36.20
19180;DHT22;9722;48.754;8.868;2023-06-10T09:17:18;36.30;36.00
19180;DHT22;9722;48.754;8.868;2023-06-10T09:20:39;36.50;35.70
19180;DHT22;9722;48.754;8.868;2023-06-10T09:24:00;36.30;35.40
19180;DHT22;9722;48.754;8.868;2023-06-10T09:27:20;36.20;35.30
19180;DHT22;9722;48.754;8.868;2023-06-10T09:30:41;36.30;35.00
19180;DHT22;9722;48.754;8.868;2023-06-10T09:34:20;36.50;34.80
19180;DHT22;9722;48.754;8.868;2023-06-10T09:37:45;36.80;34.80
19180;DHT22;9722;48.754;8.868;2023-06-10T09:41:05;37.20;34.50
19180;DHT22;9722;48.754;8.868;2023-06-10T09:44:26;37.70;33.80
19180;DHT22;9722;48.754;8.868;2023-06-10T09:47:50;38.00;33.20
19180;DHT22;9722;48.754;8.868;2023-06-10T09:51:13;38.20;32.60
19180;DHT22;9722;48.754;8.868;2023-06-10T09:54:33;38.30;32.70
19180;DHT22;9722;48.754;8.868;2023-06-10T09:57:55;38.20;31.80
19180;DHT22;9722;48.754;8.868;2023-06-10T10:01:15;38.20;32.40
19180;DHT22;9722;48.754;8.868;2023-06-10T10:04:36;38.20;33.00
19180;DHT22;9722;48.754;8.868;2023-06-10T10:07:57;38.60;32.60
19180;DHT22;9722;48.754;8.868;2023-06-10T10:11:19;39.20;32.30
19180;DHT22;9722;48.754;8.868;2023-06-10T10:14:46;39.40;31.90
19180;DHT22;9722;48.754;8.868;2023-06-10T10:18:10;39.70;31.80
19180;DHT22;9722;48.754;8.868;2023-06-10T10:21:35;39.80;31.50
19180;DHT22;9722;48.754;8.868;2023-06-10T10:25:02;39.50;31.30
19180;DHT22;9722;48.754;8.868;2023-06-10T10:28:24;38.60;31.90
19180;DHT22;9722;48.754;8.868;2023-06-10T10:31:50;37.80;33.10
19180;DHT22;9722;48.754;8.868;2023-06-10T10:35:21;38.00;33.60
19180;DHT22;9722;48.754;8.868;2023-06-10T10:38:45;38.80;32.10
19180;DHT22;9722;48.754;8.868;2023-06-10T10:42:08;39.50;31.00
19180;DHT22;9722;48.754;8.868;2023-06-10T10:45:30;39.80;30.10
19180;DHT22;9722;48.754;8.868;2023-06-10T10:48:53;39.60;30.40
19180;DHT22;9722;48.754;8.868;2023-06-10T10:52:14;39.80;30.30
19180;DHT22;9722;48.754;8.868;2023-06-10T10:55:35;39.90;30.10
19180;DHT22;9722;48.754;8.868;2023-06-10T10:59:06;39.90;30.10
19180;DHT22;9722;48.754;8.868;2023-06-10T11:06:00;40.90;29.50
19180;DHT22;9722;48.754;8.868;2023-06-10T11:09:31;41.30;28.90
19180;DHT22;9722;48.754;8.868;2023-06-10T11:12:52;41.60;28.50
19180;DHT22;9722;48.754;8.868;2023-06-10T11:16:19;42.10;28.10
19180;DHT22;9722;48.754;8.868;2023-06-10T11:19:40;42.30;28.60
19180;DHT22;9722;48.754;8.868;2023-06-10T11:23:06;42.50;28.20
19180;DHT22;9722;48.754;8.868;2023-06-10T11:30:17;40.60;29.00
19180;DHT22;9722;48.754;8.868;2023-06-10T11:33:38;39.60;30.00
19180;DHT22;9722;48.754;8.868;2023-06-10T11:36:59;40.20;30.00
19180;DHT22;9722;48.754;8.868;2023-06-10T11:40:20;41.10;29.20
19180;DHT22;9722;48.754;8.868;2023-06-10T11:43:46;41.90;28.70
19180;DHT22;9722;48.754;8.868;2023-06-10T11:47:09;42.40;28.10
19180;DHT22;9722;48.754;8.868;2023-06-10T11:50:33;41.80;28.30
19180;DHT22;9722;48.754;8.868;2023-06-10T11:53:55;40.70;28.70
19180;DHT22;9722;48.754;8.868;2023-06-10T11:57:15;39.60;29.60
19180;DHT22;9722;48.754;8.868;2023-06-10T12:00:50;39.30;29.60
19180;DHT22;9722;48.754;8.868;2023-06-10T12:04:15;39.40;30.00
19180;DHT22;9722;48.754;8.868;2023-06-10T12:07:36;39.40;29.90
19180;DHT22;9722;48.754;8.868;2023-06-10T12:10:57;38.70;29.90
19180;DHT22;9722;48.754;8.868;2023-06-10T12:14:50;38.20;30.50
19180;DHT22;9722;48.754;8.868;2023-06-10T12:18:19;38.90;30.90
19180;DHT22;9722;48.754;8.868;2023-06-10T12:21:39;40.00;29.40
19180;DHT22;9722;48.754;8.868;2023-06-10T12:25:02;40.50;28.60
19180;DHT22;9722;48.754;8.868;2023-06-10T12:28:25;40.10;28.80
19180;DHT22;9722;48.754;8.868;2023-06-10T12:32:01;39.30;28.80
19180;DHT22;9722;48.754;8.868;2023-06-10T12:35:25;38.80;29.60
19180;DHT22;9722;48.754;8.868;2023-06-10T12:38:46;39.00;30.00
19180;DHT22;9722;48.754;8.868;2023-06-10T12:42:08;39.80;29.60
19180;DHT22;9722;48.754;8.868;2023-06-10T12:45:37;39.60;29.30
19180;DHT22;9722;48.754;8.868;2023-06-10T12:48:59;38.80;29.90
19180;DHT22;9722;48.754;8.868;2023-06-10T12:52:20;38.00;30.10
19180;DHT22;9722;48.754;8.868;2023-06-10T12:55:40;36.90;30.90
19180;DHT22;9722;48.754;8.868;2023-06-10T12:59:01;35.70;32.00
19180;DHT22;9722;48.754;8.868;2023-06-10T13:02:23;34.80;33.00
19180;DHT22;9722;48.754;8.868;2023-06-10T13:05:44;34.50;33.70
19180;DHT22;9722;48.754;8.868;2023-06-10T13:09:05;35.50;33.10
19180;DHT22;9722;48.754;8.868;2023-06-10T13:12:27;37.10;32.10
19180;DHT22;9722;48.754;8.868;2023-06-10T13:15:51;38.00;30.70
19180;DHT22;9722;48.754;8.868;2023-06-10T13:19:12;37.50;30.40
19180;DHT22;9722;48.754;8.868;2023-06-10T13:22:33;36.20;31.30
19180;DHT22;9722;48.754;8.868;2023-06-10T13:25:55;35.20;32.50
19180;DHT22;9722;48.754;8.868;2023-06-10T13:29:16;34.80;32.70
19180;DHT22;9722;48.754;8.868;2023-06-10T13:32:37;34.60;33.80
19180;DHT22;9722;48.754;8.868;2023-06-10T13:35:57;34.50;34.20
19180;DHT22;9722;48.754;8.868;2023-06-10T13:39:18;34.30;34.30
19180;DHT22;9722;48.754;8.868;2023-06-10T13:42:38;33.70;35.20
19180;DHT22;9722;48.754;8.868;2023-06-10T13:45:59;33.30;35.60
19180;DHT22;9722;48.754;8.868;2023-06-10T13:49:20;33.00;36.40
19180;DHT22;9722;48.754;8.868;2023-06-10T13:52:41;32.90;36.40
19180;DHT22;9722;48.754;8.868;2023-06-10T13:56:01;32.70;36.80
19180;DHT22;9722;48.754;8.868;2023-06-10T13:59:22;32.50;36.30
19180;DHT22;9722;48.754;8.868;2023-06-10T14:02:43;32.20;36.70
19180;DHT22;9722;48.754;8.868;2023-06-10T14:06:03;32.00;37.30
19180;DHT22;9722;48.754;8.868;2023-06-10T14:09:24;31.80;37.60
19180;DHT22;9722;48.754;8.868;2023-06-10T14:12:44;31.70;37.60
19180;DHT22;9722;48.754;8.868;2023-06-10T14:16:05;31.60;37.60
19180;DHT22;9722;48.754;8.868;2023-06-10T14:19:26;31.50;37.90
19180;DHT22;9722;48.754;8.868;2023-06-10T14:22:46;31.60;38.10
19180;DHT22;9722;48.754;8.868;2023-06-10T14:26:07;31.60;37.60
19180;DHT22;9722;48.754;8.868;2023-06-10T14:29:27;31.50;37.60
19180;DHT22;9722;48.754;8.868;2023-06-10T14:32:49;31.30;37.50
19180;DHT22;9722;48.754;8.868;2023-06-10T14:36:10;31.20;37.60
19180;DHT22;9722;48.754;8.868;2023-06-10T14:39:31;31.20;37.80
19180;DHT22;9722;48.754;8.868;2023-06-10T14:42:51;31.10;37.80
19180;DHT22;9722;48.754;8.868;2023-06-10T14:46:12;31.10;38.00
19180;DHT22;9722;48.754;8.868;2023-06-10T14:49:32;31.10;38.00
19180;DHT22;9722;48.754;8.868;2023-06-10T14:52:53;31.10;38.00
19180;DHT22;9722;48.754;8.868;2023-06-10T14:56:13;31.00;38.50
19180;DHT22;9722;48.754;8.868;2023-06-10T14:59:34;30.90;38.50
19180;DHT22;9722;48.754;8.868;2023-06-10T15:02:55;30.80;38.60
19180;DHT22;9722;48.754;8.868;2023-06-10T15:06:17;30.60;38.30
19180;DHT22;9722;48.754;8.868;2023-06-10T15:09:41;30.50;38.40
19180;DHT22;9722;48.754;8.868;2023-06-10T15:13:02;30.40;38.60
19180;DHT22;9722;48.754;8.868;2023-06-10T15:16:23;30.40;38.60
19180;DHT22;9722;48.754;8.868;2023-06-10T15:19:43;30.40;38.40
19180;DHT22;9722;48.754;8.868;2023-06-10T15:23:04;30.40;38.40
19180;DHT22;9722;48.754;8.868;2023-06-10T15:26:24;30.30;38.30
19180;DHT22;9722;48.754;8.868;2023-06-10T15:29:45;30.30;38.70
19180;DHT22;9722;48.754;8.868;2023-06-10T15:33:06;30.20;39.20
19180;DHT22;9722;48.754;8.868;2023-06-10T15:36:26;30.10;39.70
19180;DHT22;9722;48.754;8.868;2023-06-10T15:39:47;29.90;40.10
19180;DHT22;9722;48.754;8.868;2023-06-10T15:43:08;29.70;40.30
19180;DHT22;9722;48.754;8.868;2023-06-10T15:46:29;29.50;40.60
19180;DHT22;9722;48.754;8.868;2023-06-10T15:49:50;29.50;40.90
19180;DHT22;9722;48.754;8.868;2023-06-10T15:53:10;29.40;41.00
19180;DHT22;9722;48.754;8.868;2023-06-10T15:56:31;29.30;40.90
19180;DHT22;9722;48.754;8.868;2023-06-10T15:59:51;29.30;40.80
19180;DHT22;9722;48.754;8.868;2023-06-10T16:03:12;29.20;41.10
19180;DHT22;9722;48.754;8.868;2023-06-10T16:06:33;29.10;41.10
19180;DHT22;9722;48.754;8.868;2023-06-10T16:09:54;29.20;41.00
19180;DHT22;9722;48.754;8.868;2023-06-10T16:13:15;29.30;41.40
19180;DHT22;9722;48.754;8.868;2023-06-10T16:16:35;29.30;41.50
19180;DHT22;9722;48.754;8.868;2023-06-10T16:19:56;29.40;41.40
19180;DHT22;9722;48.754;8.868;2023-06-10T16:23:16;29.50;41.20
19180;DHT22;9722;48.754;8.868;2023-06-10T16:26:37;29.50;41.20
19180;DHT22;9722;48.754;8.868;2023-06-10T16:29:57;29.40;41.40
19180;DHT22;9722;48.754;8.868;2023-06-10T16:33:18;29.30;41.60
19180;DHT22;9722;48.754;8.868;2023-06-10T16:36:38;29.10;41.60
19180;DHT22;9722;48.754;8.868;2023-06-10T16:39:59;28.90;41.80
19180;DHT22;9722;48.754;8.868;2023-06-10T16:43:20;28.80;42.10
19180;DHT22;9722;48.754;8.868;2023-06-10T16:46:43;28.70;42.00
19180;DHT22;9722;48.754;8.868;2023-06-10T16:50:04;28.60;42.10
19180;DHT22;9722;48.754;8.868;2023-06-10T16:53:24;28.50;42.30
19180;DHT22;9722;48.754;8.868;2023-06-10T16:56:45;28.40;42.30
19180;DHT22;9722;48.754;8.868;2023-06-10T17:00:06;28.20;42.20
19180;DHT22;9722;48.754;8.868;2023-06-10T17:03:26;28.10;42.10
19180;DHT22;9722;48.754;8.868;2023-06-10T17:06:47;28.10;42.50
19180;DHT22;9722;48.754;8.868;2023-06-10T17:10:07;28.00;42.60
19180;DHT22;9722;48.754;8.868;2023-06-10T17:13:28;27.90;42.50
19180;DHT22;9722;48.754;8.868;2023-06-10T17:16:49;27.80;42.60
19180;DHT22;9722;48.754;8.868;2023-06-10T17:20:10;27.80;42.90
19180;DHT22;9722;48.754;8.868;2023-06-10T17:23:31;27.80;43.30
19180;DHT22;9722;48.754;8.868;2023-06-10T17:26:51;27.70;43.30
19180;DHT22;9722;48.754;8.868;2023-06-10T17:30:12;27.70;43.40
19180;DHT22;9722;48.754;8.868;2023-06-10T17:33:32;27.70;44.50
19180;DHT22;9722;48.754;8.868;2023-06-10T17:36:53;27.60;44.10
19180;DHT22;9722;48.754;8.868;2023-06-10T17:40:13;27.60;44.30
19180;DHT22;9722;48.754;8.868;2023-06-10T17:43:34;27.50;44.50
19180;DHT22;9722;48.754;8.868;2023-06-10T17:46:54;27.40;44.50
19180;DHT22;9722;48.754;8.868;2023-06-10T17:50:15;27.40;44.80
19180;DHT22;9722;48.754;8.868;2023-06-10T17:53:35;27.30;45.00
19180;DHT22;9722;48.754;8.868;2023-06-10T17:56:56;27.20;45.30
19180;DHT22;9722;48.754;8.868;2023-06-10T18:00:17;27.10;45.50
19180;DHT22;9722;48.754;8.868;2023-06-10T18:03:37;26.90;45.70
19180;DHT22;9722;48.754;8.868;2023-06-10T18:06:58;26.80;45.90
19180;DHT22;9722;48.754;8.868;2023-06-10T18:10:19;26.60;46.10
19180;DHT22;9722;48.754;8.868;2023-06-10T18:13:40;26.50;46.10
19180;DHT22;9722;48.754;8.868;2023-06-10T18:17:00;26.40;46.40
19180;DHT22;9722;48.754;8.868;2023-06-10T18:20:21;26.30;46.70
19180;DHT22;9722;48.754;8.868;2023-06-10T18:23:41;26.30;47.00
19180;DHT22;9722;48.754;8.868;2023-06-10T18:27:01;26.40;47.10
19180;DHT22;9722;48.754;8.868;2023-06-10T18:30:22;26.40;47.10
19180;DHT22;9722;48.754;8.868;2023-06-10T18:33:43;26.50;47.30
19180;DHT22;9722;48.754;8.868;2023-06-10T18:37:06;26.60;47.30
19180;DHT22;9722;48.754;8.868;2023-06-10T18:40:27;26.60;47.30
19180;DHT22;9722;48.754;8.868;2023-06-10T18:43:47;26.70;47.50
19180;DHT22;9722;48.754;8.868;2023-06-10T18:47:08;26.60;47.60
19180;DHT22;9722;48.754;8.868;2023-06-10T18:50:28;26.50;47.80
19180;DHT22;9722;48.754;8.868;2023-06-10T18:53:49;26.40;47.90
19180;DHT22;9722;48.754;8.868;2023-06-10T18:57:10;26.30;48.20
19180;DHT22;9722;48.754;8.868;2023-06-10T19:00:31;26.20;48.30
19180;DHT22;9722;48.754;8.868;2023-06-10T19:03:51;26.00;48.50
19180;DHT22;9722;48.754;8.868;2023-06-10T19:07:12;25.90;48.60
19180;DHT22;9722;48.754;8.868;2023-06-10T19:10:33;25.80;48.70
19180;DHT22;9722;48.754;8.868;2023-06-10T19:13:53;25.60;48.90
19180;DHT22;9722;48.754;8.868;2023-06-10T19:17:13;25.50;49.10
19180;DHT22;9722;48.754;8.868;2023-06-10T19:20:36;25.40;49.20
19180;DHT22;9722;48.754;8.868;2023-06-10T19:23:58;25.20;49.40
19180;DHT22;9722;48.754;8.868;2023-06-10T19:27:18;25.10;49.80
19180;DHT22;9722;48.754;8.868;2023-06-10T19:30:39;24.90;50.10
19180;DHT22;9722;48.754;8.868;2023-06-10T19:33:59;24.70;50.00
19180;DHT22;9722;48.754;8.868;2023-06-10T19:37:20;24.50;50.40
19180;DHT22;9722;48.754;8.868;2023-06-10T19:40:41;24.40;50.70
19180;DHT22;9722;48.754;8.868;2023-06-10T19:44:01;24.20;50.90
19180;DHT22;9722;48.754;8.868;2023-06-10T19:47:22;24.10;51.20
19180;DHT22;9722;48.754;8.868;2023-06-10T19:50:42;23.90;51.30
19180;DHT22;9722;48.754;8.868;2023-06-10T19:54:03;23.80;51.70
19180;DHT22;9722;48.754;8.868;2023-06-10T19:57:23;23.70;51.90
19180;DHT22;9722;48.754;8.868;2023-06-10T20:00:44;23.60;52.30
19180;DHT22;9722;48.754;8.868;2023-06-10T20:04:04;23.50;52.60
19180;DHT22;9722;48.754;8.868;2023-06-10T20:07:25;23.30;52.80
19180;DHT22;9722;48.754;8.868;2023-06-10T20:10:45;23.20;53.10
19180;DHT22;9722;48.754;8.868;2023-06-10T20:14:06;23.10;53.40
19180;DHT22;9722;48.754;8.868;2023-06-10T20:17:27;23.00;53.50
19180;DHT22;9722;48.754;8.868;2023-06-10T20:20:47;22.90;53.80
19180;DHT22;9722;48.754;8.868;2023-06-10T20:24:08;22.80;54.10
19180;DHT22;9722;48.754;8.868;2023-06-10T20:27:28;22.70;54.30
19180;DHT22;9722;48.754;8.868;2023-06-10T20:30:49;22.70;54.60
19180;DHT22;9722;48.754;8.868;2023-06-10T20:34:10;22.60;54.70
19180;DHT22;9722;48.754;8.868;2023-06-10T20:37:30;22.50;55.10
19180;DHT22;9722;48.754;8.868;2023-06-10T20:40:51;22.40;55.30
19180;DHT22;9722;48.754;8.868;2023-06-10T20:44:11;22.30;55.50
19180;DHT22;9722;48.754;8.868;2023-06-10T20:47:34;22.30;55.80
19180;DHT22;9722;48.754;8.868;2023-06-10T20:50:55;22.20;56.00
19180;DHT22;9722;48.754;8.868;2023-06-10T20:54:16;22.20;56.30
19180;DHT22;9722;48.754;8.868;2023-06-10T20:57:36;22.10;56.40
19180;DHT22;9722;48.754;8.868;2023-06-10T21:00:57;22.00;56.70
19180;DHT22;9722;48.754;8.868;2023-06-10T21:04:17;22.00;57.00
19180;DHT22;9722;48.754;8.868;2023-06-10T21:07:38;21.90;57.30
19180;DHT22;9722;48.754;8.868;2023-06-10T21:10:58;21.90;57.50
19180;DHT22;9722;48.754;8.868;2023-06-10T21:14:19;21.80;57.80
19180;DHT22;9722;48.754;8.868;2023-06-10T21:17:39;21.80;58.20
19180;DHT22;9722;48.754;8.868;2023-06-10T21:21:00;21.70;58.50
19180;DHT22;9722;48.754;8.868;2023-06-10T21:24:20;21.60;58.80
19180;DHT22;9722;48.754;8.868;2023-06-10T21:27:41;21.60;59.30
19180;DHT22;9722;48.754;8.868;2023-06-10T21:31:01;21.60;59.70
19180;DHT22;9722;48.754;8.868;2023-06-10T21:34:24;21.50;59.90
19180;DHT22;9722;48.754;8.868;2023-06-10T21:37:44;21.50;60.20
19180;DHT22;9722;48.754;8.868;2023-06-10T21:41:05;21.40;60.60
19180;DHT22;9722;48.754;8.868;2023-06-10T21:44:25;21.40;61.00
19180;DHT22;9722;48.754;8.868;2023-06-10T21:47:46;21.30;61.10